Time;durP1;ratioP1;P1;durP2;ratioP2;P2;SDS_P1;SDS_P2;PMS_P1;PMS_P2;Temp;Humidity;BMP_temperature;BMP_pressure;BME280_temperature;BME280_humidity;BME280_pressure;Samples;Min_cycle;Max_cycle;Signal;HPM_P1;HPM_P2
2023/04/17 00:00:33;;;;;;;34.40;31.60;;;;;;;;;;5054082;28;20433;-82
2023/04/17 00:03:01;;;;;;;34.17;31.17;;;;;;;;;;5054502;28;20851;-81
2023/04/17 00:05:30;;;;;;;34.30;31.13;;;;;;;;;;5051257;28;20444;-82
2023/04/17 00:07:58;;;;;;;34.77;31.90;;;;;;;;;;5055809;28;20456;-82
2023/04/17 00:10:25;;;;;;;35.30;32.27;;;;;;;;;;5054307;28;20468;-83
2023/04/17 00:12:54;;;;;;;34.53;31.57;;;;;;;;;;5050866;28;20448;-81
2023/04/17 00:15:21;;;;;;;35.20;32.20;;;;;;;;;;5048847;28;20947;-83
2023/04/17 00:17:48;;;;;;;34.73;31.63;;;;;;;;;;5043981;28;20483;-82
2023/04/17 00:20:15;;;;;;;36.07;32.87;;;;;;;;;;5040142;28;20450;-81
2023/04/17 00:22:42;;;;;;;36.47;32.93;;;;;;;;;;5043631;28;20486;-82
2023/04/17 00:25:11;;;;;;;33.67;30.70;;;;;;;;;;5041112;28;20418;-82
2023/04/17 00:27:38;;;;;;;34.47;31.67;;;;;;;;;;5042243;28;20484;-82
2023/04/17 00:30:08;;;;;;;35.03;32.23;;;;;;;;;;5044044;28;20521;-82
2023/04/17 00:32:35;;;;;;;34.90;32.00;;;;;;;;;;5043991;28;20935;-82
2023/04/17 00:35:02;;;;;;;34.83;31.63;;;;;;;;;;5042626;28;20410;-82
2023/04/17 00:37:29;;;;;;;36.47;33.37;;;;;;;;;;5041907;28;20489;-82
2023/04/17 00:39:56;;;;;;;37.73;34.50;;;;;;;;;;5042404;28;20458;-83
2023/04/17 00:42:23;;;;;;;35.83;32.73;;;;;;;;;;5045175;28;20455;-82
2023/04/17 00:44:50;;;;;;;36.50;32.73;;;;;;;;;;5043624;28;20477;-82
2023/04/17 00:47:21;;;;;;;36.53;33.23;;;;;;;;;;5042980;28;20432;-82
2023/04/17 00:49:48;;;;;;;36.73;33.23;;;;;;;;;;5025449;28;20488;-83
2023/04/17 00:52:17;;;;;;;36.27;33.00;;;;;;;;;;5041846;28;20422;-82
2023/04/17 00:54:44;;;;;;;38.40;34.67;;;;;;;;;;5045452;28;20460;-82
2023/04/17 00:57:12;;;;;;;39.23;35.93;;;;;;;;;;5041837;28;20438;-82
2023/04/17 00:59:40;;;;;;;39.40;35.43;;;;;;;;;;5053411;28;20474;-81
2023/04/17 01:02:08;;;;;;;35.43;32.20;;;;;;;;;;5048314;28;20433;-82
2023/04/17 01:04:36;;;;;;;37.10;34.00;;;;;;;;;;5056352;28;20482;-81
2023/04/17 01:07:03;;;;;;;36.77;33.70;;;;;;;;;;5052905;28;20429;-82
2023/04/17 01:09:30;;;;;;;38.27;35.10;;;;;;;;;;5041851;28;20446;-83
2023/04/17 01:12:12;;;;;;;36.57;33.37;;;;;;;;;;5039155;28;20478;-82
2023/04/17 01:14:40;;;;;;;38.40;35.00;;;;;;;;;;5038036;28;20506;-82
2023/04/17 01:17:09;;;;;;;36.80;33.70;;;;;;;;;;5039977;28;20505;-82
2023/04/17 01:19:37;;;;;;;38.80;35.30;;;;;;;;;;5040271;28;20452;-82
2023/04/17 01:22:04;;;;;;;40.63;36.57;;;;;;;;;;5038916;28;20455;-82
2023/04/17 01:24:32;;;;;;;38.00;34.80;;;;;;;;;;5039460;28;20428;-82
2023/04/17 01:26:59;;;;;;;40.20;36.20;;;;;;;;;;5040883;28;20984;-82
2023/04/17 01:29:26;;;;;;;41.13;37.07;;;;;;;;;;5038252;28;20485;-81
2023/04/17 01:31:53;;;;;;;39.60;36.03;;;;;;;;;;5038585;28;20498;-82
2023/04/17 01:34:21;;;;;;;37.83;34.40;;;;;;;;;;5039362;28;20440;-82
2023/04/17 01:36:48;;;;;;;40.27;36.87;;;;;;;;;;5040414;28;20487;-82
2023/04/17 01:39:16;;;;;;;37.90;34.60;;;;;;;;;;5040923;28;20474;-83
2023/04/17 01:41:44;;;;;;;41.07;37.33;;;;;;;;;;5047705;28;20423;-82
2023/04/17 01:44:11;;;;;;;40.90;36.90;;;;;;;;;;5038718;28;20434;-82
2023/04/17 01:46:38;;;;;;;40.50;36.63;;;;;;;;;;5038490;28;20464;-82
2023/04/17 01:49:05;;;;;;;39.50;36.10;;;;;;;;;;5037681;28;20517;-83
2023/04/17 01:51:32;;;;;;;39.33;35.63;;;;;;;;;;5038050;28;20765;-82
2023/04/17 01:53:59;;;;;;;39.70;36.10;;;;;;;;;;5039787;28;20422;-82
2023/04/17 01:56:27;;;;;;;38.27;34.70;;;;;;;;;;5038142;28;20513;-82
2023/04/17 01:58:56;;;;;;;38.70;35.00;;;;;;;;;;5040961;28;20466;-82
2023/04/17 02:01:23;;;;;;;41.00;37.40;;;;;;;;;;5041812;28;20442;-82
2023/04/17 02:03:50;;;;;;;37.50;33.87;;;;;;;;;;5041397;28;20467;-83
2023/04/17 02:06:17;;;;;;;38.30;34.90;;;;;;;;;;5039613;28;20422;-82
2023/04/17 02:08:44;;;;;;;37.80;34.67;;;;;;;;;;5039203;28;20472;-82
2023/04/17 02:11:12;;;;;;;37.93;34.43;;;;;;;;;;5039139;28;20439;-82
2023/04/17 02:13:39;;;;;;;36.90;33.70;;;;;;;;;;5041043;28;20430;-82
2023/04/17 02:16:08;;;;;;;37.87;34.57;;;;;;;;;;5039165;28;20480;-83
2023/04/17 02:18:35;;;;;;;38.30;34.90;;;;;;;;;;5038367;28;20497;-83
2023/04/17 02:21:02;;;;;;;38.57;35.03;;;;;;;;;;5038231;28;20804;-82
2023/04/17 02:23:29;;;;;;;37.37;34.07;;;;;;;;;;5039806;28;20460;-82
2023/04/17 02:25:57;;;;;;;37.30;34.20;;;;;;;;;;5038912;28;20499;-82
2023/04/17 02:28:24;;;;;;;37.50;34.30;;;;;;;;;;5039751;28;20519;-82
2023/04/17 02:30:51;;;;;;;39.17;35.30;;;;;;;;;;5038943;28;20451;-82
2023/04/17 02:33:20;;;;;;;37.67;34.27;;;;;;;;;;5039410;28;20459;-82
2023/04/17 02:35:47;;;;;;;37.53;34.33;;;;;;;;;;5037755;28;20908;-82
2023/04/17 02:38:14;;;;;;;37.93;34.57;;;;;;;;;;5047466;28;20481;-81
2023/04/17 02:40:41;;;;;;;39.50;35.80;;;;;;;;;;5041932;28;20528;-83
2023/04/17 02:43:08;;;;;;;36.03;32.83;;;;;;;;;;5037513;28;20489;-82
2023/04/17 02:45:35;;;;;;;38.23;35.00;;;;;;;;;;5037888;28;20455;-83
2023/04/17 02:48:02;;;;;;;36.97;33.60;;;;;;;;;;5041090;28;20423;-82
2023/04/17 02:50:31;;;;;;;39.97;36.17;;;;;;;;;;5039732;28;20426;-83
2023/04/17 02:52:58;;;;;;;40.67;36.60;;;;;;;;;;5040785;28;20440;-82
2023/04/17 02:55:25;;;;;;;36.87;33.47;;;;;;;;;;5042073;28;20522;-84
2023/04/17 02:57:52;;;;;;;38.70;35.30;;;;;;;;;;5045495;28;20471;-82
2023/04/17 03:00:19;;;;;;;38.83;35.27;;;;;;;;;;5047123;28;20469;-82
2023/04/17 03:02:47;;;;;;;39.23;35.50;;;;;;;;;;5046030;28;20436;-82
2023/04/17 03:05:14;;;;;;;39.20;35.40;;;;;;;;;;5038989;28;20497;-82
2023/04/17 03:07:43;;;;;;;36.53;33.43;;;;;;;;;;5037797;28;20432;-83
2023/04/17 03:10:10;;;;;;;37.80;34.70;;;;;;;;;;5040350;28;20434;-81
2023/04/17 03:12:38;;;;;;;37.20;33.83;;;;;;;;;;5041626;28;20422;-82
2023/04/17 03:15:06;;;;;;;39.03;35.67;;;;;;;;;;5037552;28;20537;-82
2023/04/17 03:17:33;;;;;;;39.13;35.23;;;;;;;;;;5037389;28;20422;-82
2023/04/17 03:20:01;;;;;;;38.17;34.70;;;;;;;;;;5041019;28;20500;-82
2023/04/17 03:22:28;;;;;;;35.03;31.97;;;;;;;;;;5040615;28;20471;-82
2023/04/17 03:24:56;;;;;;;38.67;35.03;;;;;;;;;;5043665;28;20428;-82
2023/04/17 03:27:24;;;;;;;37.70;34.00;;;;;;;;;;5041192;28;20438;-81
2023/04/17 03:29:51;;;;;;;41.90;37.63;;;;;;;;;;5041443;28;20453;-82
2023/04/17 03:32:18;;;;;;;38.73;35.13;;;;;;;;;;5053672;28;20454;-81
2023/04/17 03:34:45;;;;;;;40.57;36.70;;;;;;;;;;5049617;28;20407;-82
2023/04/17 03:37:12;;;;;;;39.97;36.27;;;;;;;;;;5045565;28;20422;-82
2023/04/17 03:39:39;;;;;;;40.07;36.33;;;;;;;;;;5045326;28;20487;-82
2023/04/17 03:42:10;;;;;;;39.23;35.73;;;;;;;;;;5046505;28;20414;-82
2023/04/17 03:44:37;;;;;;;38.53;34.93;;;;;;;;;;5043404;28;20446;-83
2023/04/17 03:47:04;;;;;;;38.23;34.53;;;;;;;;;;5044367;28;20480;-83
2023/04/17 03:49:31;;;;;;;40.17;36.13;;;;;;;;;;5044173;28;20975;-82
2023/04/17 03:51:59;;;;;;;40.00;36.30;;;;;;;;;;5044616;28;20422;-82
2023/04/17 03:54:26;;;;;;;39.03;35.73;;;;;;;;;;5050109;28;20789;-82
2023/04/17 03:56:53;;;;;;;39.53;35.73;;;;;;;;;;5050457;28;20923;-83
2023/04/17 03:59:22;;;;;;;39.93;36.03;;;;;;;;;;5046774;28;20537;-82
2023/04/17 04:01:49;;;;;;;39.00;35.70;;;;;;;;;;5047055;28;20474;-82
2023/04/17 04:04:16;;;;;;;41.07;37.27;;;;;;;;;;5046220;28;20462;-82
2023/04/17 04:06:43;;;;;;;37.90;34.37;;;;;;;;;;5041453;28;20451;-82
2023/04/17 04:09:10;;;;;;;40.20;36.80;;;;;;;;;;5041012;28;20521;-82
2023/04/17 04:11:37;;;;;;;39.10;35.70;;;;;;;;;;5043062;28;20454;-82
2023/04/17 04:14:04;;;;;;;40.93;37.23;;;;;;;;;;5041296;28;20517;-82
2023/04/17 04:16:33;;;;;;;39.73;36.10;;;;;;;;;;5039161;28;20451;-82
2023/04/17 04:19:00;;;;;;;39.43;35.63;;;;;;;;;;5039177;28;20549;-82
2023/04/17 04:21:28;;;;;;;40.70;37.00;;;;;;;;;;5039436;28;20531;-83
2023/04/17 04:23:55;;;;;;;38.63;35.23;;;;;;;;;;5039284;28;20454;-82
2023/04/17 04:26:23;;;;;;;39.60;35.87;;;;;;;;;;5038837;28;20486;-81
2023/04/17 04:28:50;;;;;;;39.40;35.80;;;;;;;;;;5040621;28;20475;-81
2023/04/17 04:31:18;;;;;;;38.30;35.00;;;;;;;;;;5041333;28;20525;-81
2023/04/17 04:33:47;;;;;;;38.77;35.30;;;;;;;;;;5047089;28;21009;-81
2023/04/17 04:36:19;;;;;;;40.57;37.03;;;;;;;;;;5051047;28;20451;-81
2023/04/17 04:38:49;;;;;;;39.97;36.27;;;;;;;;;;5041882;28;20515;-81
2023/04/17 04:41:16;;;;;;;39.23;35.83;;;;;;;;;;5042180;28;20428;-81
2023/04/17 04:43:43;;;;;;;37.47;34.30;;;;;;;;;;5041379;28;20430;-81
2023/04/17 04:46:11;;;;;;;39.27;35.70;;;;;;;;;;5041487;28;20584;-81
2023/04/17 04:48:38;;;;;;;38.00;34.27;;;;;;;;;;5041374;28;20434;-81
2023/04/17 04:51:06;;;;;;;38.90;35.60;;;;;;;;;;5044017;28;20455;-81
2023/04/17 04:53:33;;;;;;;39.40;35.80;;;;;;;;;;5044583;28;20430;-81
2023/04/17 04:56:00;;;;;;;40.87;37.10;;;;;;;;;;5040978;28;20478;-80
2023/04/17 04:58:28;;;;;;;40.50;35.20;;;;;;;;;;5042036;28;20525;-80
2023/04/17 05:00:55;;;;;;;40.20;36.50;;;;;;;;;;5045485;28;20490;-81
2023/04/17 05:03:22;;;;;;;39.67;35.87;;;;;;;;;;5041274;28;20434;-80
2023/04/17 05:05:50;;;;;;;40.10;36.40;;;;;;;;;;5036786;28;20430;-80
2023/04/17 05:08:19;;;;;;;39.93;36.20;;;;;;;;;;5039248;28;20440;-80
2023/04/17 05:10:46;;;;;;;39.17;35.57;;;;;;;;;;5038927;28;20463;-79
2023/04/17 05:13:13;;;;;;;39.13;35.00;;;;;;;;;;5039168;28;20537;-80
2023/04/17 05:15:41;;;;;;;38.13;34.67;;;;;;;;;;5038541;28;20429;-80
2023/04/17 05:18:08;;;;;;;39.43;35.80;;;;;;;;;;5038285;28;20874;-80
2023/04/17 05:20:36;;;;;;;38.90;35.50;;;;;;;;;;5037692;28;20488;-80
2023/04/17 05:23:03;;;;;;;39.77;36.23;;;;;;;;;;5037351;28;20951;-80
2023/04/17 05:25:31;;;;;;;37.83;34.50;;;;;;;;;;5037868;28;20451;-80
2023/04/17 05:27:58;;;;;;;39.67;36.07;;;;;;;;;;5037909;28;20426;-80
2023/04/17 05:30:25;;;;;;;37.20;33.90;;;;;;;;;;5038160;28;20422;-80
2023/04/17 05:32:53;;;;;;;38.93;35.67;;;;;;;;;;5039838;28;20452;-81
2023/04/17 05:35:20;;;;;;;39.60;35.90;;;;;;;;;;5040020;28;20470;-81
2023/04/17 05:37:47;;;;;;;36.87;33.70;;;;;;;;;;5044598;28;20470;-82
2023/04/17 05:40:21;;;;;;;37.30;33.90;;;;;;;;;;5041797;28;20458;-80
2023/04/17 05:42:49;;;;;;;38.80;35.13;;;;;;;;;;5040527;28;20925;-81
2023/04/17 05:45:17;;;;;;;37.20;33.83;;;;;;;;;;5044567;28;20431;-82
2023/04/17 05:47:45;;;;;;;38.03;34.30;;;;;;;;;;5045538;28;20466;-81
2023/04/17 05:50:12;;;;;;;37.70;34.30;;;;;;;;;;5047853;28;20460;-81
2023/04/17 05:52:39;;;;;;;35.20;31.90;;;;;;;;;;5043028;28;20419;-81
2023/04/17 05:55:06;;;;;;;36.73;33.53;;;;;;;;;;5042575;28;20430;-82
2023/04/17 05:57:33;;;;;;;36.90;33.50;;;;;;;;;;5039436;28;20440;-80
2023/04/17 06:00:07;;;;;;;36.07;32.67;;;;;;;;;;5039664;28;20801;-81
2023/04/17 06:02:36;;;;;;;36.43;33.00;;;;;;;;;;5045663;28;20808;-80
2023/04/17 06:05:05;;;;;;;36.20;33.00;;;;;;;;;;5046708;28;20451;-81
2023/04/17 06:07:33;;;;;;;35.40;32.50;;;;;;;;;;5037593;28;20446;-80
2023/04/17 06:10:00;;;;;;;34.47;31.40;;;;;;;;;;5040467;28;20464;-81
2023/04/17 06:12:27;;;;;;;36.17;32.97;;;;;;;;;;5043292;28;20418;-80
2023/04/17 06:14:55;;;;;;;34.07;31.07;;;;;;;;;;5047301;28;20426;-81
2023/04/17 06:17:23;;;;;;;34.90;32.07;;;;;;;;;;5040682;28;20467;-80
2023/04/17 06:19:50;;;;;;;37.50;33.83;;;;;;;;;;5038696;28;20458;-81
2023/04/17 06:22:17;;;;;;;36.40;32.93;;;;;;;;;;5039112;28;20462;-82
2023/04/17 06:24:44;;;;;;;36.27;33.13;;;;;;;;;;5039355;28;20483;-81
2023/04/17 06:27:11;;;;;;;35.20;32.17;;;;;;;;;;5041197;28;20478;-81
2023/04/17 06:29:38;;;;;;;34.57;31.57;;;;;;;;;;5038988;28;20442;-79
2023/04/17 06:32:06;;;;;;;36.13;32.93;;;;;;;;;;5035983;28;20442;-81
2023/04/17 06:34:34;;;;;;;38.70;35.10;;;;;;;;;;5036552;28;20422;-80
2023/04/17 06:37:01;;;;;;;33.60;30.80;;;;;;;;;;5037768;28;20426;-81
2023/04/17 06:39:30;;;;;;;35.10;32.10;;;;;;;;;;5041506;28;20466;-80
2023/04/17 06:41:58;;;;;;;34.60;31.77;;;;;;;;;;5038051;28;20426;-81
2023/04/17 06:44:25;;;;;;;35.50;32.27;;;;;;;;;;5037356;28;20516;-81
2023/04/17 06:46:53;;;;;;;35.43;32.03;;;;;;;;;;5040186;28;20414;-80
2023/04/17 06:49:20;;;;;;;34.50;31.50;;;;;;;;;;5038102;28;20439;-80
2023/04/17 06:51:48;;;;;;;34.50;31.60;;;;;;;;;;5039600;28;20414;-81
2023/04/17 06:54:15;;;;;;;34.07;31.00;;;;;;;;;;5038540;28;20442;-80
2023/04/17 06:56:42;;;;;;;32.40;29.80;;;;;;;;;;5037544;28;20436;-79
2023/04/17 06:59:09;;;;;;;34.63;31.73;;;;;;;;;;5038878;28;20468;-80
2023/04/17 07:01:37;;;;;;;36.10;32.87;;;;;;;;;;5036576;28;20455;-81
2023/04/17 07:04:04;;;;;;;35.03;31.83;;;;;;;;;;5036684;28;20430;-82
2023/04/17 07:06:33;;;;;;;33.00;29.97;;;;;;;;;;5037452;28;20442;-81
2023/04/17 07:09:01;;;;;;;34.20;31.20;;;;;;;;;;5035695;28;20942;-79
2023/04/17 07:11:28;;;;;;;33.93;30.77;;;;;;;;;;5034358;28;20933;-79
2023/04/17 07:13:55;;;;;;;33.27;30.57;;;;;;;;;;5033741;28;21134;-80
2023/04/17 07:16:23;;;;;;;32.23;29.40;;;;;;;;;;5035771;28;20464;-80
2023/04/17 07:18:50;;;;;;;32.47;29.87;;;;;;;;;;5034429;28;21031;-79
2023/04/17 07:21:17;;;;;;;35.37;32.17;;;;;;;;;;5036724;28;20491;-80
2023/04/17 07:23:45;;;;;;;33.07;30.37;;;;;;;;;;5036264;28;20451;-80
2023/04/17 07:26:13;;;;;;;32.50;30.10;;;;;;;;;;5035642;28;20414;-80
2023/04/17 07:28:41;;;;;;;33.77;30.93;;;;;;;;;;5037166;28;20446;-79
2023/04/17 07:31:08;;;;;;;32.67;29.87;;;;;;;;;;5037754;28;20868;-80
2023/04/17 07:33:35;;;;;;;34.17;31.17;;;;;;;;;;5034370;28;20414;-80
2023/04/17 07:36:03;;;;;;;30.90;28.50;;;;;;;;;;5033789;28;20426;-81
2023/04/17 07:38:31;;;;;;;32.43;29.77;;;;;;;;;;5034347;28;20483;-80
2023/04/17 07:40:58;;;;;;;30.83;28.53;;;;;;;;;;5034178;28;20504;-80
2023/04/17 07:43:27;;;;;;;33.43;30.80;;;;;;;;;;5035013;28;20424;-80
2023/04/17 07:45:54;;;;;;;32.97;30.27;;;;;;;;;;5033589;28;20456;-80
2023/04/17 07:48:22;;;;;;;32.57;29.80;;;;;;;;;;5033469;28;20472;-80
2023/04/17 07:50:49;;;;;;;30.93;28.63;;;;;;;;;;5035483;28;20443;-82
2023/04/17 07:53:16;;;;;;;31.73;29.13;;;;;;;;;;5030975;28;20590;-86
2023/04/17 07:55:43;;;;;;;31.13;28.83;;;;;;;;;;5013729;28;20431;-86
2023/04/17 07:58:11;;;;;;;32.73;30.13;;;;;;;;;;5012404;28;20431;-86
2023/04/17 08:00:40;;;;;;;31.67;29.33;;;;;;;;;;5011697;28;20475;-81
2023/04/17 08:03:07;;;;;;;31.30;28.87;;;;;;;;;;5011765;28;20460;-81
2023/04/17 08:05:34;;;;;;;31.23;28.70;;;;;;;;;;5013933;28;20426;-85
2023/04/17 08:08:01;;;;;;;31.57;29.00;;;;;;;;;;5014844;28;20456;-79
2023/04/17 08:10:28;;;;;;;31.13;28.60;;;;;;;;;;5014917;28;20435;-87
2023/04/17 08:12:55;;;;;;;31.97;29.47;;;;;;;;;;5014868;28;20456;-87
2023/04/17 08:15:22;;;;;;;31.00;28.50;;;;;;;;;;5014986;28;20519;-87
2023/04/17 08:17:51;;;;;;;32.17;29.53;;;;;;;;;;5014784;28;20922;-87
2023/04/17 08:20:18;;;;;;;32.53;29.97;;;;;;;;;;5014356;28;20503;-83
2023/04/17 08:22:45;;;;;;;31.70;29.10;;;;;;;;;;5013733;28;20464;-81
2023/04/17 08:25:13;;;;;;;31.17;28.73;;;;;;;;;;5014637;28;20479;-80
2023/04/17 08:27:40;;;;;;;31.47;29.20;;;;;;;;;;5014394;28;20424;-82
2023/04/17 08:30:08;;;;;;;30.97;28.47;;;;;;;;;;5013585;28;20455;-81
2023/04/17 08:32:37;;;;;;;31.60;29.40;;;;;;;;;;5014748;28;20515;-82
2023/04/17 08:35:06;;;;;;;29.20;26.90;;;;;;;;;;5014974;28;20518;-82
2023/04/17 08:37:34;;;;;;;31.90;29.70;;;;;;;;;;5015021;28;20510;-81
2023/04/17 08:40:03;;;;;;;30.20;27.67;;;;;;;;;;5015702;28;20462;-84
2023/04/17 08:42:30;;;;;;;30.63;28.17;;;;;;;;;;5018047;28;20443;-83
2023/04/17 08:44:59;;;;;;;31.10;28.57;;;;;;;;;;5018487;28;20460;-81
2023/04/17 08:47:27;;;;;;;31.87;29.47;;;;;;;;;;5017384;28;20463;-81
2023/04/17 08:49:55;;;;;;;30.90;28.70;;;;;;;;;;5017277;28;20443;-81
2023/04/17 08:52:24;;;;;;;29.37;27.27;;;;;;;;;;5016949;28;20480;-82
2023/04/17 08:54:51;;;;;;;30.53;28.13;;;;;;;;;;5017290;28;20431;-82
2023/04/17 08:57:18;;;;;;;30.17;27.97;;;;;;;;;;5016656;28;20485;-81
2023/04/17 08:59:45;;;;;;;31.63;29.17;;;;;;;;;;5017027;28;20460;-81
2023/04/17 09:02:12;;;;;;;29.67;27.40;;;;;;;;;;5017449;28;20427;-81
2023/04/17 09:04:41;;;;;;;30.00;27.80;;;;;;;;;;5017218;28;20472;-81
2023/04/17 09:07:09;;;;;;;30.53;28.30;;;;;;;;;;5017625;28;20531;-81
2023/04/17 09:09:53;;;;;;;31.37;28.87;;;;;;;;;;5017257;28;20455;-81
2023/04/17 09:12:20;;;;;;;30.27;28.03;;;;;;;;;;5021200;28;20448;-81
2023/04/17 09:14:47;;;;;;;31.57;29.10;;;;;;;;;;5017622;28;20431;-81
2023/04/17 09:17:16;;;;;;;30.97;28.57;;;;;;;;;;5016413;28;20423;-81
2023/04/17 09:19:58;;;;;;;31.10;28.80;;;;;;;;;;5019079;28;20558;-81
2023/04/17 09:22:25;;;;;;;29.47;27.47;;;;;;;;;;5021670;28;20471;-81
2023/04/17 09:24:53;;;;;;;32.67;30.27;;;;;;;;;;5020615;28;20453;-82
2023/04/17 09:27:21;;;;;;;32.30;29.90;;;;;;;;;;5016715;28;20485;-81
2023/04/17 09:29:58;;;;;;;30.30;28.30;;;;;;;;;;5016869;28;20472;-81
2023/04/17 09:32:25;;;;;;;31.17;28.67;;;;;;;;;;5017176;28;20437;-82
2023/04/17 09:34:52;;;;;;;31.47;28.83;;;;;;;;;;5016728;28;20433;-81
2023/04/17 09:37:20;;;;;;;31.00;28.67;;;;;;;;;;5016809;28;20455;-81
2023/04/17 09:39:58;;;;;;;33.20;30.90;;;;;;;;;;5016587;28;20458;-81
2023/04/17 09:42:26;;;;;;;31.83;29.23;;;;;;;;;;5016617;28;21128;-80
2023/04/17 09:44:53;;;;;;;32.20;29.80;;;;;;;;;;5016608;28;20427;-81
2023/04/17 09:47:20;;;;;;;31.50;29.30;;;;;;;;;;5015552;28;20452;-81
2023/04/17 09:49:51;;;;;;;30.67;28.37;;;;;;;;;;5015525;28;20451;-82
2023/04/17 09:52:18;;;;;;;32.57;30.37;;;;;;;;;;5017781;28;20808;-80
2023/04/17 09:54:46;;;;;;;31.77;29.50;;;;;;;;;;5017650;28;20514;-81
2023/04/17 09:57:14;;;;;;;31.10;29.00;;;;;;;;;;5015985;28;20475;-81
2023/04/17 09:59:44;;;;;;;31.93;29.60;;;;;;;;;;5015438;28;20489;-81
2023/04/17 10:02:12;;;;;;;31.00;28.80;;;;;;;;;;5015922;28;20474;-81
2023/04/17 10:04:40;;;;;;;31.07;28.97;;;;;;;;;;5016789;28;20988;-85
2023/04/17 10:07:07;;;;;;;30.23;28.13;;;;;;;;;;5016658;28;20994;-81
2023/04/17 10:09:35;;;;;;;32.00;29.80;;;;;;;;;;5018471;28;20821;-81
2023/04/17 10:12:02;;;;;;;29.20;27.20;;;;;;;;;;5016794;28;20440;-80
2023/04/17 10:14:34;;;;;;;30.07;27.73;;;;;;;;;;5016081;28;20433;-80
2023/04/17 10:17:21;;;;;;;29.47;27.37;;;;;;;;;;5015769;28;20891;-81
2023/04/17 10:19:48;;;;;;;30.70;28.47;;;;;;;;;;5016728;28;20996;-80
2023/04/17 10:22:32;;;;;;;31.63;28.57;;;;;;;;;;5016992;28;20468;-80
2023/04/17 10:25:18;;;;;;;30.83;28.73;;;;;;;;;;5017592;28;20872;-80
2023/04/17 10:27:46;;;;;;;29.87;27.87;;;;;;;;;;5026705;28;20435;-81
2023/04/17 10:30:15;;;;;;;30.30;28.30;;;;;;;;;;5027011;28;20473;-80
2023/04/17 10:32:42;;;;;;;29.60;27.60;;;;;;;;;;5022132;28;20437;-82
2023/04/17 10:35:30;;;;;;;30.13;27.60;;;;;;;;;;5020398;28;20444;-80
2023/04/17 10:38:05;;;;;;;29.53;27.43;;;;;;;;;;5013074;28;20474;-80
2023/04/17 10:40:33;;;;;;;29.80;27.47;;;;;;;;;;5016700;28;20507;-81
2023/04/17 10:43:08;;;;;;;30.37;27.97;;;;;;;;;;5017962;28;20454;-80
2023/04/17 10:45:56;;;;;;;29.60;27.40;;;;;;;;;;5016753;28;21016;-79
2023/04/17 10:48:27;;;;;;;30.00;27.17;;;;;;;;;;5019180;28;20522;-80
2023/04/17 10:50:54;;;;;;;31.37;28.93;;;;;;;;;;5020092;28;20524;-81
2023/04/17 10:53:36;;;;;;;30.93;28.83;;;;;;;;;;5017502;28;20547;-81
2023/04/17 10:56:03;;;;;;;30.97;28.87;;;;;;;;;;5013220;28;20513;-80
2023/04/17 10:58:30;;;;;;;30.70;28.43;;;;;;;;;;5016300;28;20472;-79
2023/04/17 11:01:02;;;;;;;32.40;30.00;;;;;;;;;;5014367;28;21062;-80
2023/04/17 11:03:30;;;;;;;31.40;29.23;;;;;;;;;;5014512;28;20897;-79
2023/04/17 11:05:59;;;;;;;28.70;26.60;;;;;;;;;;5014729;28;20515;-80
2023/04/17 11:08:26;;;;;;;31.30;28.57;;;;;;;;;;5016765;28;20468;-80
2023/04/17 11:10:54;;;;;;;30.00;27.80;;;;;;;;;;5015852;28;20460;-80
2023/04/17 11:13:21;;;;;;;30.63;27.87;;;;;;;;;;5018555;28;20458;-82
2023/04/17 11:15:48;;;;;;;30.57;28.17;;;;;;;;;;5037381;28;20856;-80
2023/04/17 11:18:17;;;;;;;28.23;26.40;;;;;;;;;;5036118;28;20448;-80
2023/04/17 11:20:44;;;;;;;29.50;27.50;;;;;;;;;;5035419;28;20585;-80
2023/04/17 11:23:12;;;;;;;30.80;28.33;;;;;;;;;;5036250;28;20436;-80
2023/04/17 11:25:40;;;;;;;32.20;29.80;;;;;;;;;;5035246;28;20459;-80
2023/04/17 11:28:07;;;;;;;31.43;29.33;;;;;;;;;;5034986;28;20447;-80
2023/04/17 11:30:35;;;;;;;30.67;28.70;;;;;;;;;;5035128;28;20430;-80
2023/04/17 11:33:04;;;;;;;31.40;28.87;;;;;;;;;;5035250;28;20530;-80
2023/04/17 11:35:33;;;;;;;29.23;27.13;;;;;;;;;;5035553;28;20856;-81
2023/04/17 11:38:21;;;;;;;29.37;27.33;;;;;;;;;;5035273;28;20926;-80
2023/04/17 11:40:50;;;;;;;32.30;29.93;;;;;;;;;;5034021;28;20455;-80
2023/04/17 11:43:17;;;;;;;30.77;28.57;;;;;;;;;;5038061;28;20566;-80
2023/04/17 11:45:45;;;;;;;29.33;27.23;;;;;;;;;;5038591;28;20509;-81
2023/04/17 11:48:13;;;;;;;30.10;28.00;;;;;;;;;;5039682;28;20609;-80
2023/04/17 11:50:42;;;;;;;30.43;28.10;;;;;;;;;;5039502;28;20819;-81
2023/04/17 11:53:12;;;;;;;29.03;26.73;;;;;;;;;;5039090;28;20883;-81
2023/04/17 11:55:39;;;;;;;28.80;26.67;;;;;;;;;;5040838;28;20800;-80
2023/04/17 11:58:07;;;;;;;31.40;28.93;;;;;;;;;;5039116;28;20447;-80
2023/04/17 12:00:34;;;;;;;31.07;28.83;;;;;;;;;;5043923;28;20426;-81
2023/04/17 12:03:02;;;;;;;28.80;26.97;;;;;;;;;;5038206;28;20531;-80
2023/04/17 12:05:29;;;;;;;27.67;25.87;;;;;;;;;;5038804;28;20432;-80
2023/04/17 12:08:03;;;;;;;28.73;26.83;;;;;;;;;;5037610;28;20823;-79
2023/04/17 12:10:40;;;;;;;30.77;28.57;;;;;;;;;;5040693;28;20438;-80
2023/04/17 12:13:08;;;;;;;28.80;26.77;;;;;;;;;;5041554;28;20451;-80
2023/04/17 12:15:35;;;;;;;28.83;26.77;;;;;;;;;;5039347;28;20496;-80
2023/04/17 12:18:04;;;;;;;40.53;37.63;;;;;;;;;;5043826;28;20438;-81
2023/04/17 12:20:32;;;;;;;31.43;29.13;;;;;;;;;;5045515;28;20437;-80
2023/04/17 12:22:59;;;;;;;30.20;28.17;;;;;;;;;;5040764;28;20460;-80
2023/04/17 12:25:27;;;;;;;31.00;28.90;;;;;;;;;;5039965;28;20430;-80
2023/04/17 12:27:55;;;;;;;31.60;29.40;;;;;;;;;;5041910;28;20894;-80
2023/04/17 12:30:23;;;;;;;31.30;28.87;;;;;;;;;;5043295;28;20465;-81
2023/04/17 12:32:51;;;;;;;32.37;29.70;;;;;;;;;;5042592;28;20848;-80
2023/04/17 12:35:18;;;;;;;28.63;26.73;;;;;;;;;;5044200;28;20422;-80
2023/04/17 12:37:47;;;;;;;31.73;29.40;;;;;;;;;;5037166;28;20533;-81
2023/04/17 12:40:15;;;;;;;31.83;29.40;;;;;;;;;;5038095;28;20480;-80
2023/04/17 12:42:44;;;;;;;31.40;29.23;;;;;;;;;;5037790;28;20446;-81
2023/04/17 12:45:11;;;;;;;32.23;29.93;;;;;;;;;;5038492;28;20456;-80
2023/04/17 12:47:38;;;;;;;31.80;29.50;;;;;;;;;;5037604;28;20442;-81
2023/04/17 12:50:06;;;;;;;32.50;29.90;;;;;;;;;;5039307;28;20454;-80
2023/04/17 12:52:34;;;;;;;32.93;30.50;;;;;;;;;;5038453;28;20440;-80
2023/04/17 12:55:02;;;;;;;30.30;28.10;;;;;;;;;;5039961;28;20448;-81
2023/04/17 12:57:29;;;;;;;32.63;30.17;;;;;;;;;;5037781;28;21019;-81
2023/04/17 12:59:58;;;;;;;32.63;30.23;;;;;;;;;;5038082;28;20469;-80
2023/04/17 13:02:25;;;;;;;32.50;29.90;;;;;;;;;;5038581;28;20492;-80
2023/04/17 13:04:52;;;;;;;31.37;29.20;;;;;;;;;;5038659;28;20422;-81
2023/04/17 13:07:19;;;;;;;32.27;29.70;;;;;;;;;;5038489;28;20422;-81
2023/04/17 13:09:46;;;;;;;31.27;29.00;;;;;;;;;;5038778;28;20512;-81
2023/04/17 13:12:14;;;;;;;32.00;29.80;;;;;;;;;;5040012;28;20423;-80
2023/04/17 13:14:42;;;;;;;31.03;28.83;;;;;;;;;;5039361;28;20836;-80
2023/04/17 13:17:10;;;;;;;30.90;28.60;;;;;;;;;;5037256;28;20430;-80
2023/04/17 13:19:38;;;;;;;32.70;30.33;;;;;;;;;;5039419;28;20443;-81
2023/04/17 13:22:06;;;;;;;32.47;29.63;;;;;;;;;;5037971;28;20466;-81
2023/04/17 13:24:33;;;;;;;32.20;30.00;;;;;;;;;;5038158;28;20503;-80
2023/04/17 13:27:01;;;;;;;31.70;29.40;;;;;;;;;;5039872;28;20459;-80
2023/04/17 13:29:28;;;;;;;30.27;27.97;;;;;;;;;;5037399;28;20454;-80
2023/04/17 13:31:55;;;;;;;30.53;28.10;;;;;;;;;;5038493;28;20452;-80
2023/04/17 13:34:23;;;;;;;31.83;29.43;;;;;;;;;;5034969;28;20431;-81
2023/04/17 13:36:50;;;;;;;30.23;27.80;;;;;;;;;;5035058;28;20443;-80
2023/04/17 13:39:17;;;;;;;32.43;29.83;;;;;;;;;;5037820;28;21027;-81
2023/04/17 13:41:44;;;;;;;32.00;29.60;;;;;;;;;;5037134;28;20457;-80
2023/04/17 13:44:12;;;;;;;32.10;29.60;;;;;;;;;;5039624;28;20932;-80
2023/04/17 13:46:39;;;;;;;31.60;28.67;;;;;;;;;;5038728;28;20529;-81
2023/04/17 13:49:07;;;;;;;32.83;30.47;;;;;;;;;;5040031;28;21020;-81
2023/04/17 13:51:35;;;;;;;31.63;28.87;;;;;;;;;;5039958;28;20503;-81
2023/04/17 13:54:02;;;;;;;32.80;30.10;;;;;;;;;;5047101;28;20474;-81
2023/04/17 13:56:29;;;;;;;30.37;28.17;;;;;;;;;;5045410;28;20460;-81
2023/04/17 13:58:56;;;;;;;31.50;29.10;;;;;;;;;;5043711;28;20471;-80
2023/04/17 14:01:24;;;;;;;30.70;28.50;;;;;;;;;;5038557;28;20468;-81
2023/04/17 14:03:51;;;;;;;29.80;27.50;;;;;;;;;;5040432;28;20433;-80
2023/04/17 14:06:18;;;;;;;32.17;29.67;;;;;;;;;;5037150;28;20471;-80
2023/04/17 14:08:47;;;;;;;31.20;29.00;;;;;;;;;;5038747;28;20467;-81
2023/04/17 14:11:16;;;;;;;31.13;29.07;;;;;;;;;;5039213;28;20883;-81
2023/04/17 14:13:43;;;;;;;30.80;28.67;;;;;;;;;;5038450;28;20423;-80
2023/04/17 14:16:10;;;;;;;32.37;29.60;;;;;;;;;;5037464;28;20980;-81
2023/04/17 14:18:37;;;;;;;31.43;29.27;;;;;;;;;;5036462;28;20454;-82
2023/04/17 14:21:04;;;;;;;31.93;29.60;;;;;;;;;;5036529;28;20463;-81